createdAt,value
2018-09-06T00:00:49.861Z,44.93
2018-09-06T00:03:17.239Z,43.63
2018-09-06T00:05:44.666Z,41.50
2018-09-06T00:08:12.090Z,47.43
2018-09-06T00:10:39.558Z,46.23
2018-09-06T00:13:06.917Z,39.90
2018-09-06T00:15:34.261Z,46.20
2018-09-06T00:18:01.533Z,42.00
2018-09-06T00:20:28.875Z,39.67
2018-09-06T00:22:56.375Z,43.37
2018-09-06T00:25:23.683Z,42.10
2018-09-06T00:27:51.003Z,43.73
2018-09-06T00:30:18.378Z,40.47
2018-09-06T00:32:45.678Z,45.70
2018-09-06T00:35:12.970Z,44.13
2018-09-06T00:37:40.618Z,43.43
2018-09-06T00:40:08.494Z,46.93
2018-09-06T00:42:35.858Z,41.93
2018-09-06T00:45:03.610Z,36.13
2018-09-06T00:47:30.957Z,39.83
2018-09-06T00:49:58.342Z,36.93
2018-09-06T00:52:25.976Z,40.10
2018-09-06T00:54:53.464Z,36.03
2018-09-06T00:57:20.878Z,35.83
2018-09-06T00:59:48.257Z,39.63
2018-09-06T01:02:15.605Z,36.43
2018-09-06T01:04:42.938Z,34.13
2018-09-06T01:07:10.291Z,31.40
2018-09-06T01:09:37.727Z,27.13
2018-09-06T01:12:05.125Z,26.87
2018-09-06T01:14:32.465Z,29.90
2018-09-06T01:16:59.833Z,31.60
2018-09-06T01:19:27.366Z,27.00
2018-09-06T01:21:54.705Z,22.43
2018-09-06T01:24:22.027Z,24.83
2018-09-06T01:26:49.398Z,30.83
2018-09-06T01:29:16.726Z,28.67
2018-09-06T01:31:44.858Z,31.67
2018-09-06T01:34:12.218Z,35.63
2018-09-06T01:36:47.261Z,31.60
2018-09-06T01:39:15.177Z,28.67
2018-09-06T01:41:42.737Z,25.63
2018-09-06T01:44:10.051Z,24.10
2018-09-06T01:46:37.993Z,24.27
2018-09-06T01:49:05.894Z,40.60
2018-09-06T01:51:33.668Z,33.00
2018-09-06T01:54:01.874Z,38.00
2018-09-06T01:56:29.711Z,32.67
2018-09-06T01:58:57.018Z,34.10
2018-09-06T02:01:24.427Z,34.97
2018-09-06T02:03:52.394Z,32.23
2018-09-06T02:06:19.815Z,30.50
2018-09-06T02:08:47.230Z,37.20
2018-09-06T02:11:14.733Z,30.70
2018-09-06T02:13:42.355Z,36.30
2018-09-06T02:16:09.835Z,34.33
2018-09-06T02:18:37.286Z,30.57
2018-09-06T02:21:04.906Z,31.67
2018-09-06T02:23:32.434Z,32.40
2018-09-06T02:25:59.799Z,32.37
2018-09-06T02:28:27.483Z,32.47
2018-09-06T02:30:54.919Z,26.30
2018-09-06T02:33:22.271Z,29.50
2018-09-06T02:35:49.633Z,32.47
2018-09-06T02:38:16.964Z,29.23
2018-09-06T02:40:44.310Z,31.00
2018-09-06T02:43:12.677Z,31.13
2018-09-06T02:45:41.033Z,33.73
2018-09-06T02:48:08.460Z,30.80
2018-09-06T02:50:41.577Z,31.43
2018-09-06T02:53:08.922Z,35.50
2018-09-06T02:55:36.340Z,33.07
2018-09-06T02:58:03.858Z,29.50
2018-09-06T03:00:32.693Z,32.10
2018-09-06T03:03:00.339Z,27.37
2018-09-06T03:05:27.804Z,27.73
2018-09-06T03:07:56.164Z,26.83
2018-09-06T03:10:23.841Z,24.97
2018-09-06T03:12:52.022Z,29.70
2018-09-06T03:15:19.587Z,28.40
2018-09-06T03:17:46.938Z,33.77
2018-09-06T03:20:14.530Z,34.23
2018-09-06T03:22:42.029Z,31.17
2018-09-06T03:25:09.395Z,28.57
2018-09-06T03:27:36.849Z,27.73
2018-09-06T03:30:04.459Z,29.27
2018-09-06T03:32:32.392Z,26.23
2018-09-06T03:34:59.689Z,23.20
2018-09-06T03:37:27.162Z,29.70
2018-09-06T03:39:54.638Z,26.90
2018-09-06T03:42:21.929Z,23.53
2018-09-06T03:44:49.336Z,22.40
2018-09-06T03:47:16.893Z,26.73
2018-09-06T03:49:44.221Z,24.70
2018-09-06T03:52:11.549Z,26.93
2018-09-06T03:54:38.859Z,27.27
2018-09-06T03:57:06.806Z,34.33
2018-09-06T03:59:34.563Z,32.13
2018-09-06T04:02:01.874Z,26.70
2018-09-06T04:04:29.234Z,29.87
2018-09-06T04:06:56.606Z,26.97
2018-09-06T04:09:23.969Z,24.47
2018-09-06T04:11:51.427Z,25.03
2018-09-06T04:14:18.748Z,29.60
2018-09-06T04:16:46.379Z,26.17
2018-09-06T04:19:14.166Z,25.17
2018-09-06T04:21:41.480Z,22.83
2018-09-06T04:24:08.910Z,66.53
2018-09-06T04:26:36.359Z,66.53
2018-09-06T04:29:03.684Z,50.40
2018-09-06T04:31:31.144Z,37.10
2018-09-06T04:33:58.538Z,30.93
2018-09-06T04:36:25.869Z,27.03
2018-09-06T04:38:53.341Z,24.77
2018-09-06T04:41:20.866Z,24.27
2018-09-06T04:43:48.509Z,23.03
2018-09-06T04:46:16.028Z,30.00
2018-09-06T04:48:43.358Z,47.73
2018-09-06T04:51:10.707Z,67.87
2018-09-06T04:53:39.197Z,51.10
2018-09-06T04:56:06.681Z,44.13
2018-09-06T04:58:34.067Z,34.37
2018-09-06T05:01:01.375Z,26.80
2018-09-06T05:03:28.725Z,31.87
2018-09-06T05:05:56.077Z,28.23
2018-09-06T05:08:23.511Z,27.23
2018-09-06T05:10:50.810Z,26.90
2018-09-06T05:13:18.124Z,27.67
2018-09-06T05:15:45.565Z,42.87
2018-09-06T05:18:13.054Z,54.67
2018-09-06T05:20:40.500Z,50.63
2018-09-06T05:23:08.005Z,38.60
2018-09-06T05:25:35.504Z,32.90
2018-09-06T05:28:03.032Z,30.50
2018-09-06T05:30:30.777Z,25.33
2018-09-06T05:32:58.122Z,27.70
2018-09-06T05:35:25.568Z,31.63
2018-09-06T05:37:52.898Z,30.63
2018-09-06T05:40:20.258Z,23.10
2018-09-06T05:42:47.714Z,24.63
2018-09-06T05:45:15.370Z,25.17
2018-09-06T05:47:42.869Z,24.77
2018-09-06T05:50:10.192Z,23.63
2018-09-06T05:52:37.649Z,21.53
2018-09-06T05:55:05.014Z,25.47
2018-09-06T05:57:32.300Z,26.20
2018-09-06T05:59:59.772Z,25.53
2018-09-06T06:02:27.048Z,26.07
2018-09-06T06:04:54.428Z,26.27
2018-09-06T06:07:27.789Z,23.10
2018-09-06T06:09:55.130Z,26.53
2018-09-06T06:12:22.542Z,27.57
2018-09-06T06:14:50.282Z,32.83
2018-09-06T06:17:17.665Z,25.80
2018-09-06T06:19:45.058Z,29.60
2018-09-06T06:22:12.948Z,26.60
2018-09-06T06:24:40.268Z,25.00
2018-09-06T06:27:07.727Z,30.93
2018-09-06T06:29:35.030Z,25.80
2018-09-06T06:32:02.351Z,25.30
2018-09-06T06:34:29.816Z,25.90
2018-09-06T06:36:57.185Z,30.00
2018-09-06T06:39:24.630Z,30.53
2018-09-06T06:41:51.933Z,29.77
2018-09-06T06:44:19.278Z,27.10
2018-09-06T06:46:46.590Z,29.53
2018-09-06T06:49:13.937Z,31.17
2018-09-06T06:51:41.323Z,30.87
2018-09-06T06:54:08.833Z,28.83
2018-09-06T06:56:36.160Z,27.27
2018-09-06T06:59:03.615Z,28.33
2018-09-06T07:01:30.961Z,26.50
2018-09-06T07:03:58.370Z,29.10
2018-09-06T07:06:25.670Z,28.00
2018-09-06T07:08:53.103Z,26.60
2018-09-06T07:11:20.609Z,27.47
2018-09-06T07:13:47.958Z,28.80
2018-09-06T07:16:15.370Z,32.97
2018-09-06T07:18:42.730Z,35.73
2018-09-06T07:21:10.086Z,28.50
2018-09-06T07:23:37.485Z,25.80
2018-09-06T07:26:05.075Z,27.93
2018-09-06T07:28:32.598Z,31.37
2018-09-06T07:31:00.157Z,29.33
2018-09-06T07:33:27.561Z,27.97
2018-09-06T07:35:54.926Z,29.60
2018-09-06T07:38:22.250Z,29.87
2018-09-06T07:40:49.570Z,36.27
2018-09-06T07:43:16.969Z,30.90
2018-09-06T07:45:44.326Z,33.13
2018-09-06T07:48:11.674Z,29.47
2018-09-06T07:50:39.215Z,29.13
2018-09-06T07:53:06.576Z,26.43
2018-09-06T07:55:33.903Z,26.70
2018-09-06T07:58:01.261Z,24.10
2018-09-06T08:00:28.610Z,27.70
2018-09-06T08:02:55.957Z,27.77
2018-09-06T08:05:23.289Z,29.50
2018-09-06T08:07:50.718Z,33.23
2018-09-06T08:10:18.374Z,30.70
2018-09-06T08:12:45.719Z,27.90
2018-09-06T08:15:13.248Z,31.40
2018-09-06T08:17:40.755Z,30.30
2018-09-06T08:20:08.232Z,29.80
2018-09-06T08:22:35.675Z,30.97
2018-09-06T08:25:03.124Z,30.07
2018-09-06T08:27:30.446Z,30.40
2018-09-06T08:29:57.831Z,28.40
2018-09-06T08:32:25.171Z,33.07
2018-09-06T08:34:52.585Z,29.57
2018-09-06T08:37:19.937Z,26.83
2018-09-06T08:39:47.339Z,29.60
2018-09-06T08:42:14.827Z,31.10
2018-09-06T08:44:42.178Z,28.20
2018-09-06T08:47:09.582Z,31.53
2018-09-06T08:49:36.939Z,29.13
2018-09-06T08:52:04.295Z,25.27
2018-09-06T08:54:31.814Z,30.40
2018-09-06T08:56:59.134Z,29.50
2018-09-06T08:59:26.508Z,29.80
2018-09-06T09:01:53.873Z,30.83
2018-09-06T09:04:21.219Z,30.10
2018-09-06T09:06:48.656Z,34.43
2018-09-06T09:09:16.055Z,29.23
2018-09-06T09:11:43.522Z,33.73
2018-09-06T09:14:10.887Z,30.60
2018-09-06T09:16:38.365Z,32.27
2018-09-06T09:19:06.396Z,29.97
2018-09-06T09:21:34.022Z,36.90
2018-09-06T09:24:02.456Z,31.60
2018-09-06T09:26:29.885Z,33.20
2018-09-06T09:28:57.202Z,37.43
2018-09-06T09:31:24.575Z,30.70
2018-09-06T09:33:52.021Z,29.00
2018-09-06T09:36:19.829Z,29.30
2018-09-06T09:38:47.239Z,35.63
2018-09-06T09:41:14.797Z,32.27
2018-09-06T09:43:42.174Z,33.83
2018-09-06T09:48:36.467Z,34.70
2018-09-06T09:51:04.026Z,31.50
2018-09-06T09:53:31.426Z,32.90
2018-09-06T09:55:58.712Z,31.43
2018-09-06T09:58:26.186Z,30.77
2018-09-06T10:00:53.705Z,36.17
2018-09-06T10:03:26.874Z,28.50
2018-09-06T10:05:54.868Z,33.03
2018-09-06T10:08:28.077Z,63.97
2018-09-06T10:10:55.445Z,98.50
2018-09-06T10:13:22.791Z,53.67
2018-09-06T10:15:50.103Z,45.30
2018-09-06T10:18:17.697Z,39.67
2018-09-06T10:20:45.098Z,32.83
2018-09-06T10:23:12.451Z,31.70
2018-09-06T10:25:39.786Z,26.40
2018-09-06T10:28:07.297Z,26.73
2018-09-06T10:30:34.713Z,26.70
2018-09-06T10:33:02.235Z,23.83
2018-09-06T10:35:29.969Z,27.50
2018-09-06T10:37:57.279Z,24.73
2018-09-06T10:40:24.732Z,25.77
2018-09-06T10:42:52.118Z,24.43
2018-09-06T10:45:19.517Z,28.50
2018-09-06T10:47:46.969Z,30.57
2018-09-06T10:50:14.533Z,27.97
2018-09-06T10:52:41.944Z,25.47
2018-09-06T10:55:09.350Z,45.07
2018-09-06T10:57:36.707Z,37.23
2018-09-06T11:00:04.382Z,36.70
2018-09-06T11:02:31.741Z,33.10
2018-09-06T11:04:59.621Z,31.20
2018-09-06T11:07:26.956Z,31.90
2018-09-06T11:09:54.285Z,31.00
2018-09-06T11:12:21.585Z,23.33
2018-09-06T11:14:48.869Z,24.53
2018-09-06T11:17:16.262Z,30.50
2018-09-06T11:19:43.635Z,30.10
2018-09-06T11:22:11.149Z,32.13
2018-09-06T11:24:38.346Z,36.07
2018-09-06T11:27:05.714Z,39.17
2018-09-06T11:29:33.199Z,37.20
2018-09-06T11:32:00.526Z,29.47
2018-09-06T11:34:27.924Z,29.57
2018-09-06T11:36:55.386Z,26.70
2018-09-06T11:39:22.999Z,28.30
2018-09-06T11:41:50.506Z,22.30
2018-09-06T11:44:18.179Z,22.80
2018-09-06T11:46:45.538Z,21.00
2018-09-06T11:49:13.050Z,26.57
2018-09-06T11:51:40.781Z,26.13
2018-09-06T11:54:08.263Z,28.40
2018-09-06T11:56:35.915Z,21.33
2018-09-06T11:59:03.414Z,27.43
2018-09-06T12:01:30.907Z,24.63
2018-09-06T12:03:58.254Z,22.57
2018-09-06T12:06:25.538Z,24.70
2018-09-06T12:08:53.110Z,22.67
2018-09-06T12:11:20.459Z,19.53
2018-09-06T12:13:48.172Z,14.30
2018-09-06T12:16:15.533Z,14.73
2018-09-06T12:18:42.885Z,17.80
2018-09-06T12:21:10.230Z,15.23
2018-09-06T12:23:37.932Z,13.90
2018-09-06T12:26:05.657Z,12.23
2018-09-06T12:28:33.294Z,9.83
2018-09-06T12:31:00.621Z,8.90
2018-09-06T12:33:28.110Z,10.43
2018-09-06T12:35:55.809Z,14.77
2018-09-06T12:38:23.188Z,15.13
2018-09-06T12:40:50.593Z,13.87
2018-09-06T12:43:18.279Z,18.03
2018-09-06T12:45:45.694Z,55.60
2018-09-06T12:48:12.996Z,137.30
2018-09-06T12:50:40.573Z,45.13
2018-09-06T12:53:07.874Z,28.87
2018-09-06T12:55:35.439Z,21.37
2018-09-06T12:58:03.195Z,16.60
2018-09-06T13:00:30.746Z,17.80
2018-09-06T13:02:58.130Z,13.97
2018-09-06T13:05:25.525Z,12.93
2018-09-06T13:07:52.938Z,12.87
2018-09-06T13:10:20.300Z,14.20
2018-09-06T13:12:47.653Z,15.00
2018-09-06T13:15:15.030Z,15.27
2018-09-06T13:17:42.431Z,13.97
2018-09-06T13:20:09.964Z,23.07
2018-09-06T13:22:37.294Z,18.83
2018-09-06T13:25:05.189Z,19.13
2018-09-06T13:27:32.467Z,16.80
2018-09-06T13:29:59.826Z,21.20
2018-09-06T13:32:27.378Z,22.67
2018-09-06T13:34:54.692Z,24.30
2018-09-06T13:37:22.333Z,28.60
2018-09-06T13:39:49.706Z,41.43
2018-09-06T13:42:17.058Z,33.47
2018-09-06T13:44:44.513Z,32.47
2018-09-06T13:47:11.886Z,30.60
2018-09-06T13:49:39.923Z,41.20
2018-09-06T13:52:07.352Z,48.23
2018-09-06T13:54:34.628Z,41.03
2018-09-06T13:57:01.971Z,45.43
2018-09-06T13:59:29.397Z,39.30
2018-09-06T14:01:57.371Z,36.23
2018-09-06T14:04:24.762Z,29.40
2018-09-06T14:06:52.166Z,30.43
2018-09-06T14:09:19.570Z,36.87
2018-09-06T14:11:46.958Z,33.07
2018-09-06T14:14:14.366Z,42.80
2018-09-06T14:16:41.908Z,30.93
2018-09-06T14:19:09.185Z,30.70
2018-09-06T14:21:36.546Z,25.60
2018-09-06T14:24:04.688Z,36.93
2018-09-06T14:26:32.678Z,34.70
2018-09-06T14:28:59.982Z,31.90
2018-09-06T14:31:27.327Z,34.30
2018-09-06T14:33:54.750Z,32.10
2018-09-06T14:36:22.134Z,31.47
2018-09-06T14:38:49.488Z,42.40
2018-09-06T14:41:16.807Z,42.63
2018-09-06T14:43:44.260Z,61.27
2018-09-06T14:46:11.662Z,38.60
2018-09-06T14:48:39.071Z,27.93
2018-09-06T14:51:06.493Z,22.33
2018-09-06T14:53:33.903Z,26.83
2018-09-06T14:56:01.293Z,77.70
2018-09-06T14:58:28.611Z,51.10
2018-09-06T15:00:56.173Z,37.00
2018-09-06T15:03:23.624Z,38.17
2018-09-06T15:05:50.943Z,35.40
2018-09-06T15:08:18.348Z,25.70
2018-09-06T15:10:45.709Z,27.00
2018-09-06T15:13:13.136Z,24.50
2018-09-06T15:15:40.418Z,23.87
2018-09-06T15:18:07.742Z,20.37
2018-09-06T15:20:35.169Z,21.20
2018-09-06T15:23:02.482Z,22.10
2018-09-06T15:25:29.779Z,17.30
2018-09-06T15:27:57.173Z,16.47
2018-09-06T15:30:24.495Z,20.87
2018-09-06T15:32:52.000Z,26.47
2018-09-06T15:35:19.361Z,21.97
2018-09-06T15:37:46.755Z,19.97
2018-09-06T15:40:14.174Z,18.43
2018-09-06T15:42:41.487Z,19.40
2018-09-06T15:45:08.809Z,16.03
2018-09-06T15:47:36.130Z,25.87
2018-09-06T15:50:03.862Z,26.23
2018-09-06T15:52:31.318Z,27.67
2018-09-06T15:54:58.710Z,27.97
2018-09-06T15:57:26.043Z,31.73
2018-09-06T15:59:53.552Z,26.23
2018-09-06T16:02:21.025Z,26.70
2018-09-06T16:04:48.370Z,35.30
2018-09-06T16:07:15.723Z,40.50
2018-09-06T16:09:43.116Z,33.43
2018-09-06T16:12:10.481Z,33.40
2018-09-06T16:14:37.829Z,32.23
2018-09-06T16:17:06.003Z,28.97
2018-09-06T16:19:33.333Z,31.47
2018-09-06T16:22:00.701Z,38.10
2018-09-06T16:24:28.283Z,33.43
2018-09-06T16:26:55.690Z,29.00
2018-09-06T16:29:23.030Z,34.60
2018-09-06T16:31:50.556Z,30.30
2018-09-06T16:34:18.086Z,28.53
2018-09-06T16:36:45.628Z,29.77
2018-09-06T16:39:12.962Z,25.70
2018-09-06T16:41:41.039Z,27.73
2018-09-06T16:44:08.370Z,29.17
2018-09-06T16:46:35.734Z,28.40
2018-09-06T16:49:03.094Z,26.23
2018-09-06T16:51:30.366Z,27.20
2018-09-06T16:53:57.970Z,27.37
2018-09-06T16:56:25.363Z,25.43
2018-09-06T16:58:52.717Z,24.00
2018-09-06T17:01:21.552Z,21.13
2018-09-06T17:03:49.380Z,49.13
2018-09-06T17:06:16.823Z,28.73
2018-09-06T17:08:44.274Z,22.70
2018-09-06T17:11:11.807Z,21.30
2018-09-06T17:13:39.094Z,16.97
2018-09-06T17:16:06.702Z,18.50
2018-09-06T17:18:34.066Z,19.17
2018-09-06T17:21:01.481Z,15.10
2018-09-06T17:23:28.987Z,20.50
2018-09-06T17:25:56.399Z,12.33
2018-09-06T17:28:23.981Z,16.70
2018-09-06T17:30:51.290Z,15.40
2018-09-06T17:33:18.773Z,11.70
2018-09-06T17:35:46.109Z,10.80
2018-09-06T17:38:14.058Z,10.90
2018-09-06T17:40:41.443Z,13.73
2018-09-06T17:43:08.898Z,11.30
2018-09-06T17:45:36.527Z,13.87
2018-09-06T17:48:04.290Z,14.20
2018-09-06T17:50:31.957Z,12.27
2018-09-06T17:52:59.424Z,8.87
2018-09-06T17:55:26.811Z,11.20
2018-09-06T17:57:54.174Z,11.37
2018-09-06T18:00:21.802Z,12.10
2018-09-06T18:02:49.233Z,10.20
2018-09-06T18:05:16.669Z,10.53
2018-09-06T18:07:44.193Z,49.43
2018-09-06T18:10:11.581Z,23.80
2018-09-06T18:12:39.356Z,10.27
2018-09-06T18:15:07.090Z,9.00
2018-09-06T18:17:34.930Z,9.37
2018-09-06T18:20:02.334Z,8.27
2018-09-06T18:22:30.110Z,7.70
2018-09-06T18:24:57.549Z,8.73
2018-09-06T18:27:25.189Z,8.13
2018-09-06T18:29:52.668Z,8.73
2018-09-06T18:32:20.468Z,7.37
2018-09-06T18:34:47.864Z,6.10
2018-09-06T18:37:15.195Z,7.00
2018-09-06T18:39:42.541Z,7.03
2018-09-06T18:42:09.921Z,7.20
2018-09-06T18:44:37.243Z,6.73
2018-09-06T18:47:04.569Z,7.80
2018-09-06T18:49:31.995Z,9.63
2018-09-06T18:51:59.468Z,7.30
2018-09-06T18:54:26.917Z,7.10
2018-09-06T18:56:54.308Z,6.63
2018-09-06T18:59:22.078Z,6.10
2018-09-06T19:01:49.370Z,5.80
2018-09-06T19:04:16.714Z,5.90
2018-09-06T19:06:44.469Z,5.90
2018-09-06T19:09:12.571Z,6.90
2018-09-06T19:11:40.682Z,5.20
2018-09-06T19:14:08.121Z,7.43
2018-09-06T19:16:35.866Z,6.33
2018-09-06T19:19:03.390Z,7.93
2018-09-06T19:21:30.728Z,6.87
2018-09-06T19:23:58.228Z,6.37
2018-09-06T19:26:25.753Z,7.13
2018-09-06T19:28:53.264Z,6.40
2018-09-06T19:31:20.706Z,6.70
2018-09-06T19:33:48.331Z,5.40
2018-09-06T19:36:15.815Z,6.17
2018-09-06T19:38:43.185Z,5.53
2018-09-06T19:41:10.778Z,5.90
2018-09-06T19:43:38.090Z,8.10
2018-09-06T19:46:06.008Z,6.10
2018-09-06T19:48:33.404Z,6.60
2018-09-06T19:51:01.157Z,5.50
2018-09-06T19:53:28.558Z,12.20
2018-09-06T19:55:56.057Z,13.30
2018-09-06T19:58:23.422Z,10.00
2018-09-06T20:00:50.805Z,6.20
2018-09-06T20:03:18.370Z,6.10
2018-09-06T20:05:45.713Z,7.17
2018-09-06T20:08:13.344Z,6.17
2018-09-06T20:10:40.569Z,5.93
2018-09-06T20:13:07.927Z,5.57
2018-09-06T20:15:35.402Z,6.50
2018-09-06T20:18:03.168Z,5.70
2018-09-06T20:20:31.332Z,6.20
2018-09-06T20:22:58.774Z,6.77
2018-09-06T20:25:26.466Z,8.03
2018-09-06T20:27:53.903Z,6.47
2018-09-06T20:30:21.281Z,7.20
2018-09-06T20:32:48.701Z,9.47
2018-09-06T20:35:16.049Z,10.50
2018-09-06T20:37:43.341Z,7.47
2018-09-06T20:40:10.714Z,6.63
2018-09-06T20:42:38.072Z,7.60
2018-09-06T20:45:05.494Z,6.80
2018-09-06T20:47:32.806Z,6.70
2018-09-06T20:50:00.504Z,7.23
2018-09-06T20:52:27.927Z,6.30
2018-09-06T20:54:55.269Z,7.23
2018-09-06T20:57:22.631Z,6.23
2018-09-06T20:59:49.949Z,6.30
2018-09-06T21:02:23.568Z,7.47
2018-09-06T21:04:51.760Z,7.50
2018-09-06T21:07:19.196Z,9.30
2018-09-06T21:09:46.521Z,7.60
2018-09-06T21:12:13.834Z,9.77
2018-09-06T21:14:41.123Z,6.83
2018-09-06T21:17:08.429Z,8.07
2018-09-06T21:19:36.054Z,7.30
2018-09-06T21:22:03.684Z,7.30
2018-09-06T21:24:31.137Z,7.77
2018-09-06T21:26:58.465Z,6.93
2018-09-06T21:29:25.818Z,9.33
2018-09-06T21:31:53.130Z,6.93
2018-09-06T21:34:20.538Z,7.13
2018-09-06T21:36:47.911Z,6.73
2018-09-06T21:39:15.307Z,6.63
2018-09-06T21:41:42.997Z,7.13
2018-09-06T21:44:10.387Z,7.47
2018-09-06T21:46:38.035Z,10.83
2018-09-06T21:49:05.782Z,11.73
2018-09-06T21:51:33.065Z,7.47
2018-09-06T21:54:00.405Z,7.60
2018-09-06T21:56:28.059Z,8.80
2018-09-06T21:58:55.467Z,10.23
2018-09-06T22:01:23.358Z,9.97
2018-09-06T22:03:56.414Z,7.50
2018-09-06T22:06:23.847Z,8.30
2018-09-06T22:08:51.230Z,7.13
2018-09-06T22:11:18.627Z,8.53
2018-09-06T22:13:46.324Z,6.60
2018-09-06T22:16:13.606Z,7.20
2018-09-06T22:18:41.280Z,7.50
2018-09-06T22:21:08.665Z,6.10
2018-09-06T22:23:35.993Z,8.00
2018-09-06T22:26:03.628Z,9.87
2018-09-06T22:28:31.492Z,7.40
2018-09-06T22:30:58.863Z,7.23
2018-09-06T22:33:26.327Z,8.60
2018-09-06T22:35:53.718Z,8.37
2018-09-06T22:38:21.236Z,8.57
2018-09-06T22:40:48.525Z,6.90
2018-09-06T22:43:15.989Z,8.70
2018-09-06T22:45:43.397Z,9.40
2018-09-06T22:48:10.759Z,8.90
2018-09-06T22:50:38.109Z,8.43
2018-09-06T22:53:05.767Z,8.53
2018-09-06T22:55:33.092Z,8.77
2018-09-06T22:58:00.431Z,9.40
2018-09-06T23:00:30.571Z,9.20
2018-09-06T23:03:03.594Z,8.90
2018-09-06T23:05:31.663Z,8.50
2018-09-06T23:07:59.103Z,9.67
2018-09-06T23:10:26.694Z,11.10
2018-09-06T23:12:54.105Z,9.27
2018-09-06T23:15:21.497Z,11.10
2018-09-06T23:17:48.859Z,9.40
2018-09-06T23:20:16.399Z,12.40
2018-09-06T23:22:43.702Z,11.97
2018-09-06T23:25:10.992Z,10.80
2018-09-06T23:27:38.276Z,14.13
2018-09-06T23:30:06.156Z,11.23
2018-09-06T23:32:33.783Z,11.93
2018-09-06T23:35:07.255Z,10.67
2018-09-06T23:37:40.737Z,12.40
2018-09-06T23:40:08.413Z,11.00
2018-09-06T23:42:35.817Z,11.37
2018-09-06T23:45:03.214Z,12.13
2018-09-06T23:47:30.512Z,12.53
2018-09-06T23:49:57.799Z,12.20
2018-09-06T23:52:25.121Z,11.53
2018-09-06T23:54:52.430Z,15.37
2018-09-06T23:57:19.802Z,11.30
2018-09-06T23:59:47.133Z,11.40
